Time;durP1;ratioP1;P1;durP2;ratioP2;P2;SDS_P1;SDS_P2;PMS_P1;PMS_P2;Temp;Humidity;BMP_temperature;BMP_pressure;BME280_temperature;BME280_humidity;BME280_pressure;Samples;Min_cycle;Max_cycle;Signal;HPM_P1;HPM_P2
2022/12/14 00:00:32;;;;;;;39.78;19.95;;;;;;;;;;5055224;28;20242;-75
2022/12/14 00:02:58;;;;;;;43.08;20.65;;;;;;;;;;5055121;28;20033;-74
2022/12/14 00:05:24;;;;;;;42.63;20.17;;;;;;;;;;5054684;28;20029;-73
2022/12/14 00:07:50;;;;;;;45.83;21.23;;;;;;;;;;5054362;28;20043;-74
2022/12/14 00:10:16;;;;;;;41.38;21.20;;;;;;;;;;5054787;28;20048;-74
2022/12/14 00:12:42;;;;;;;43.88;21.98;;;;;;;;;;5054805;28;20171;-74
2022/12/14 00:15:09;;;;;;;45.47;21.63;;;;;;;;;;5054584;28;20479;-73
2022/12/14 00:17:34;;;;;;;46.22;21.30;;;;;;;;;;5053378;28;20025;-73
2022/12/14 00:20:00;;;;;;;50.45;22.17;;;;;;;;;;5054162;28;20408;-73
2022/12/14 00:22:26;;;;;;;44.63;20.60;;;;;;;;;;5054719;28;20049;-73
2022/12/14 00:24:53;;;;;;;46.08;23.05;;;;;;;;;;5054445;28;20062;-73
2022/12/14 00:27:19;;;;;;;43.00;21.70;;;;;;;;;;5053757;28;20037;-73
2022/12/14 00:29:45;;;;;;;42.33;22.15;;;;;;;;;;5054073;28;20029;-74
2022/12/14 00:32:10;;;;;;;45.47;22.42;;;;;;;;;;5054272;28;20104;-74
2022/12/14 00:34:36;;;;;;;42.58;21.45;;;;;;;;;;5036332;28;20043;-73
2022/12/14 00:37:02;;;;;;;51.60;24.50;;;;;;;;;;5054043;28;20050;-75
2022/12/14 00:39:28;;;;;;;51.17;23.25;;;;;;;;;;5053692;28;20471;-72
2022/12/14 00:41:54;;;;;;;49.67;23.20;;;;;;;;;;5052837;28;20033;-75
2022/12/14 00:44:20;;;;;;;48.78;23.77;;;;;;;;;;5053945;28;20033;-75
2022/12/14 00:46:46;;;;;;;48.75;24.20;;;;;;;;;;5053543;28;20394;-73
2022/12/14 00:49:12;;;;;;;47.97;23.15;;;;;;;;;;5052866;28;20064;-72
2022/12/14 00:51:38;;;;;;;45.05;23.73;;;;;;;;;;5056982;28;20048;-73
2022/12/14 00:54:04;;;;;;;47.65;24.00;;;;;;;;;;5034468;28;20493;-73
2022/12/14 00:56:30;;;;;;;52.13;21.98;;;;;;;;;;5052677;28;20033;-73
2022/12/14 00:58:57;;;;;;;48.65;22.17;;;;;;;;;;5051124;28;20028;-73
2022/12/14 01:01:22;;;;;;;48.53;23.85;;;;;;;;;;5052510;28;20025;-74
2022/12/14 01:03:49;;;;;;;46.30;22.17;;;;;;;;;;5053328;28;20025;-73
2022/12/14 01:06:19;;;;;;;50.88;23.35;;;;;;;;;;5053712;28;20029;-74
2022/12/14 01:08:45;;;;;;;;;;;;;;;;;;5054624;28;20197;-74
2022/12/14 01:11:12;;;;;;;43.97;21.17;;;;;;;;;;5055412;28;20313;-73
2022/12/14 01:13:38;;;;;;;37.97;20.02;;;;;;;;;;5039213;28;20486;-73
2022/12/14 01:16:22;;;;;;;47.28;21.90;;;;;;;;;;5055708;28;20049;-74
2022/12/14 01:18:48;;;;;;;40.85;20.10;;;;;;;;;;5053053;28;20037;-73
2022/12/14 01:21:14;;;;;;;39.45;20.48;;;;;;;;;;5053903;28;20029;-74
2022/12/14 01:23:40;;;;;;;41.38;18.10;;;;;;;;;;5055304;28;20025;-74
2022/12/14 01:26:06;;;;;;;37.40;18.17;;;;;;;;;;5057260;28;20483;-73
2022/12/14 01:28:33;;;;;;;38.08;18.45;;;;;;;;;;5040863;28;20040;-73
2022/12/14 01:31:00;;;;;;;33.42;18.35;;;;;;;;;;5060277;28;20039;-74
2022/12/14 01:33:26;;;;;;;38.30;17.92;;;;;;;;;;5059614;28;20060;-73
2022/12/14 01:35:52;;;;;;;36.92;17.50;;;;;;;;;;5059685;28;20024;-73
2022/12/14 01:38:17;;;;;;;32.92;16.90;;;;;;;;;;5056537;28;20025;-74
2022/12/14 01:40:43;;;;;;;36.35;17.80;;;;;;;;;;5053315;28;20025;-73
2022/12/14 01:43:12;;;;;;;34.50;17.00;;;;;;;;;;5051897;28;20032;-73
2022/12/14 01:45:39;;;;;;;31.05;15.98;;;;;;;;;;5052830;28;20025;-73
2022/12/14 01:48:05;;;;;;;34.42;18.23;;;;;;;;;;5052504;28;20021;-74
2022/12/14 01:50:35;;;;;;;33.08;16.92;;;;;;;;;;5053025;28;20071;-72
2022/12/14 01:53:07;;;;;;;30.38;16.88;;;;;;;;;;5053113;28;20112;-73
2022/12/14 01:55:35;;;;;;;29.00;15.40;;;;;;;;;;5052442;28;20552;-71
2022/12/14 01:58:04;;;;;;;30.73;16.13;;;;;;;;;;5051853;28;20024;-73
2022/12/14 02:00:30;;;;;;;31.95;17.75;;;;;;;;;;5052510;28;20112;-74
2022/12/14 02:03:06;;;;;;;32.42;17.38;;;;;;;;;;5052451;28;20108;-74
2022/12/14 02:05:33;;;;;;;31.02;15.82;;;;;;;;;;5052333;28;20052;-74
2022/12/14 02:07:59;;;;;;;28.95;15.68;;;;;;;;;;5051283;28;20052;-73
2022/12/14 02:10:27;;;;;;;28.83;15.48;;;;;;;;;;5051654;28;20029;-74
2022/12/14 02:13:01;;;;;;;30.88;15.43;;;;;;;;;;5052296;28;20425;-73
2022/12/14 02:15:27;;;;;;;34.38;16.10;;;;;;;;;;5052390;28;20036;-74
2022/12/14 02:17:53;;;;;;;30.75;15.73;;;;;;;;;;5052009;28;20546;-76
2022/12/14 02:20:22;;;;;;;30.58;15.32;;;;;;;;;;5057336;28;20029;-71
2022/12/14 02:23:16;;;;;;;30.73;14.88;;;;;;;;;;5054774;28;20402;-73
2022/12/14 02:25:55;;;;;;;28.95;15.10;;;;;;;;;;5040723;28;20387;-77
2022/12/14 02:28:24;;;;;;;28.80;15.48;;;;;;;;;;5055465;28;20376;-74
2022/12/14 02:31:10;;;;;;;29.73;15.25;;;;;;;;;;5055722;28;20029;-74
2022/12/14 02:33:45;;;;;;;30.20;14.93;;;;;;;;;;5053907;28;20036;-74
2022/12/14 02:36:15;;;;;;;27.27;13.63;;;;;;;;;;5051714;28;20060;-74
2022/12/14 02:38:45;;;;;;;26.42;14.32;;;;;;;;;;5051159;28;20106;-74
2022/12/14 02:41:17;;;;;;;19.25;10.90;;;;;;;;;;5051687;28;20033;-73
2022/12/14 02:44:04;;;;;;;31.52;16.67;;;;;;;;;;5036508;28;20029;-75
2022/12/14 02:46:42;;;;;;;30.20;15.10;;;;;;;;;;5051792;28;20128;-73
2022/12/14 02:49:27;;;;;;;31.42;15.43;;;;;;;;;;5051860;28;20025;-72
2022/12/14 02:51:55;;;;;;;31.38;16.02;;;;;;;;;;5037290;28;20089;-73
2022/12/14 02:54:31;;;;;;;31.70;15.38;;;;;;;;;;5051618;28;20543;-73
2022/12/14 02:57:08;;;;;;;30.10;15.93;;;;;;;;;;5051676;28;20112;-72
2022/12/14 02:59:35;;;;;;;31.83;15.57;;;;;;;;;;5051290;28;20031;-73
2022/12/14 03:02:02;;;;;;;34.40;17.67;;;;;;;;;;5049843;28;20483;-73
2022/12/14 03:04:29;;;;;;;35.78;17.42;;;;;;;;;;5051612;28;20086;-73
2022/12/14 03:07:18;;;;;;;31.48;15.70;;;;;;;;;;5051395;28;20029;-73
2022/12/14 03:09:44;;;;;;;30.42;15.45;;;;;;;;;;5035568;28;20029;-73
2022/12/14 03:12:12;;;;;;;31.67;15.75;;;;;;;;;;5051239;28;20390;-74
2022/12/14 03:14:42;;;;;;;34.38;17.02;;;;;;;;;;5051054;28;20029;-72
2022/12/14 03:17:14;;;;;;;29.52;14.45;;;;;;;;;;5050678;28;20025;-73
2022/12/14 03:19:43;;;;;;;25.27;14.77;;;;;;;;;;5035260;28;20028;-73
2022/12/14 03:22:17;;;;;;;27.10;14.85;;;;;;;;;;5050841;28;20025;-75
2022/12/14 03:24:48;;;;;;;34.30;15.82;;;;;;;;;;5033346;28;20056;-73
2022/12/14 03:27:18;;;;;;;34.40;15.52;;;;;;;;;;5050406;28;20036;-73
2022/12/14 03:29:54;;;;;;;31.47;15.80;;;;;;;;;;5051013;28;20399;-73
2022/12/14 03:32:22;;;;;;;30.00;15.50;;;;;;;;;;5051241;28;20103;-74
2022/12/14 03:35:11;;;;;;;31.70;15.98;;;;;;;;;;5050993;28;20091;-75
2022/12/14 03:37:44;;;;;;;33.20;16.15;;;;;;;;;;5039837;28;20377;-74
2022/12/14 03:40:11;;;;;;;28.88;16.23;;;;;;;;;;5051042;28;20053;-74
2022/12/14 03:42:37;;;;;;;35.13;17.90;;;;;;;;;;5060380;28;20469;-73
2022/12/14 03:45:22;;;;;;;32.92;17.33;;;;;;;;;;5055570;28;20029;-73
2022/12/14 03:48:06;;;;;;;32.58;15.77;;;;;;;;;;5035571;28;20096;-73
2022/12/14 03:50:43;;;;;;;32.55;16.83;;;;;;;;;;5050697;28;20041;-73
2022/12/14 03:53:12;;;;;;;33.13;16.40;;;;;;;;;;5051128;28;20039;-74
2022/12/14 03:55:43;;;;;;;29.77;15.02;;;;;;;;;;5034775;28;20054;-73
2022/12/14 03:58:17;;;;;;;29.08;16.40;;;;;;;;;;5051729;28;20098;-75
2022/12/14 04:00:49;;;;;;;30.77;15.93;;;;;;;;;;5052815;28;20029;-74
2022/12/14 04:03:25;;;;;;;28.88;16.30;;;;;;;;;;5050002;28;20035;-74
2022/12/14 04:05:54;;;;;;;34.50;17.75;;;;;;;;;;5051154;28;20029;-74
2022/12/14 04:08:34;;;;;;;31.08;16.63;;;;;;;;;;5032487;28;20040;-74
2022/12/14 04:19:48;;;;;;;31.50;15.45;;;;;;;;;;5050244;28;20047;-74
2022/12/14 04:22:17;;;;;;;32.92;17.23;;;;;;;;;;5050620;28;20350;-74
2022/12/14 04:28:08;;;;;;;29.70;15.38;;;;;;;;;;4983133;28;20493;-73
2022/12/14 04:30:38;;;;;;;35.03;18.50;;;;;;;;;;4981371;28;20387;-73
2022/12/14 04:35:53;;;;;;;34.80;17.52;;;;;;;;;;5067739;28;20094;-78
2022/12/14 04:38:26;;;;;;;33.80;17.50;;;;;;;;;;5077256;28;20021;-77
2022/12/14 04:40:53;;;;;;;31.17;16.35;;;;;;;;;;5062076;28;20013;-75
2022/12/14 04:43:21;;;;;;;31.27;16.65;;;;;;;;;;5054303;28;20117;-73
2022/12/14 04:45:50;;;;;;;33.55;19.00;;;;;;;;;;5053944;28;20025;-72
2022/12/14 04:48:19;;;;;;;33.33;15.85;;;;;;;;;;5052913;28;20033;-76
2022/12/14 04:50:47;;;;;;;33.17;17.02;;;;;;;;;;5053598;28;20033;-74
2022/12/14 04:53:15;;;;;;;31.23;16.27;;;;;;;;;;5053833;28;20117;-74
2022/12/14 04:55:51;;;;;;;33.10;17.55;;;;;;;;;;5053609;28;20427;-75
2022/12/14 04:58:28;;;;;;;28.60;15.93;;;;;;;;;;5052777;28;20049;-73
2022/12/14 05:00:54;;;;;;;33.67;17.20;;;;;;;;;;5053678;28;20036;-72
2022/12/14 05:03:22;;;;;;;35.95;16.60;;;;;;;;;;5053701;28;20033;-73
2022/12/14 05:05:48;;;;;;;30.15;16.98;;;;;;;;;;5053649;28;20024;-73
2022/12/14 05:08:16;;;;;;;31.23;15.95;;;;;;;;;;5052393;28;20090;-72
2022/12/14 05:10:46;;;;;;;34.60;17.95;;;;;;;;;;5035456;28;20025;-74
2022/12/14 05:13:21;;;;;;;33.80;16.63;;;;;;;;;;5051915;28;20036;-72
2022/12/14 05:15:54;;;;;;;31.00;16.25;;;;;;;;;;5053452;28;20472;-72
2022/12/14 05:18:21;;;;;;;28.08;14.88;;;;;;;;;;5052498;28;20479;-72
2022/12/14 05:20:47;;;;;;;31.80;17.17;;;;;;;;;;5053286;28;20025;-72
2022/12/14 05:23:13;;;;;;;36.10;17.30;;;;;;;;;;5053275;28;20044;-76
2022/12/14 05:25:39;;;;;;;33.58;16.52;;;;;;;;;;5053224;28;20055;-72
2022/12/14 05:28:05;;;;;;;32.78;16.17;;;;;;;;;;5052404;28;20033;-72
2022/12/14 05:30:31;;;;;;;31.20;16.05;;;;;;;;;;5053265;28;20040;-73
2022/12/14 05:32:58;;;;;;;30.75;15.93;;;;;;;;;;5053626;28;20074;-73
2022/12/14 05:35:24;;;;;;;31.50;16.38;;;;;;;;;;5053593;28;20106;-73
2022/12/14 05:37:50;;;;;;;32.40;16.60;;;;;;;;;;5052740;28;20025;-74
2022/12/14 05:40:16;;;;;;;31.27;15.98;;;;;;;;;;5052826;28;20422;-73
2022/12/14 05:42:42;;;;;;;36.88;16.00;;;;;;;;;;5052642;28;20391;-71
2022/12/14 05:45:10;;;;;;;32.25;17.60;;;;;;;;;;5051574;28;20182;-72
2022/12/14 05:47:36;;;;;;;36.58;17.25;;;;;;;;;;5052424;28;20537;-73
2022/12/14 05:50:02;;;;;;;32.10;15.73;;;;;;;;;;5052881;28;20040;-73
2022/12/14 05:52:28;;;;;;;32.22;16.83;;;;;;;;;;5053026;28;20025;-73
2022/12/14 05:54:54;;;;;;;31.70;16.08;;;;;;;;;;5035402;28;20032;-74
2022/12/14 05:57:20;;;;;;;28.90;16.50;;;;;;;;;;5052481;28;20399;-74
2022/12/14 05:59:47;;;;;;;32.30;16.95;;;;;;;;;;5052731;28;20035;-74
2022/12/14 06:02:13;;;;;;;29.13;15.55;;;;;;;;;;5052571;28;20028;-73
2022/12/14 06:04:39;;;;;;;34.58;15.88;;;;;;;;;;5051327;28;20051;-73
2022/12/14 06:07:05;;;;;;;35.42;14.95;;;;;;;;;;5052098;28;20561;-74
2022/12/14 06:09:31;;;;;;;30.92;16.02;;;;;;;;;;5034267;28;20069;-74
2022/12/14 06:11:57;;;;;;;29.63;16.33;;;;;;;;;;5034490;28;20017;-73
2022/12/14 06:14:24;;;;;;;30.85;16.83;;;;;;;;;;5052571;28;20450;-74
2022/12/14 06:16:50;;;;;;;30.15;15.73;;;;;;;;;;5052129;28;20172;-73
2022/12/14 06:19:16;;;;;;;30.25;15.27;;;;;;;;;;5051419;28;20062;-73
2022/12/14 06:21:43;;;;;;;24.73;14.23;;;;;;;;;;5052151;28;20021;-72
2022/12/14 06:24:10;;;;;;;27.58;14.35;;;;;;;;;;5034280;28;20020;-76
2022/12/14 06:26:39;;;;;;;30.30;15.13;;;;;;;;;;5052547;28;20028;-74
2022/12/14 06:29:05;;;;;;;31.20;16.10;;;;;;;;;;5051556;28;20029;-72
2022/12/14 06:31:34;;;;;;;32.67;17.75;;;;;;;;;;5052094;28;20024;-74
2022/12/14 06:34:02;;;;;;;32.23;16.30;;;;;;;;;;5051751;28;20041;-73
2022/12/14 06:36:29;;;;;;;33.20;15.80;;;;;;;;;;5051710;28;20029;-75
2022/12/14 06:38:56;;;;;;;31.63;15.55;;;;;;;;;;5051160;28;20409;-72
2022/12/14 06:41:23;;;;;;;38.83;16.60;;;;;;;;;;5050575;28;20039;-74
2022/12/14 06:43:49;;;;;;;33.28;15.23;;;;;;;;;;5051330;28;20033;-76
2022/12/14 06:46:17;;;;;;;31.08;15.65;;;;;;;;;;5051950;28;20037;-73
2022/12/14 06:48:44;;;;;;;28.45;14.95;;;;;;;;;;5050295;28;20037;-74
2022/12/14 06:51:10;;;;;;;29.30;15.73;;;;;;;;;;5050057;28;20037;-74
2022/12/14 06:53:36;;;;;;;30.45;15.88;;;;;;;;;;5050641;28;20025;-75
2022/12/14 06:56:06;;;;;;;30.45;16.77;;;;;;;;;;5050483;28;20017;-74
2022/12/14 06:58:32;;;;;;;30.05;16.48;;;;;;;;;;5050615;28;20029;-74
2022/12/14 07:01:01;;;;;;;29.58;15.73;;;;;;;;;;5051233;28;20035;-74
2022/12/14 07:03:27;;;;;;;33.33;16.40;;;;;;;;;;5050938;28;20167;-74
2022/12/14 07:05:56;;;;;;;30.75;15.13;;;;;;;;;;5051184;28;20104;-73
2022/12/14 07:08:23;;;;;;;27.08;15.02;;;;;;;;;;5050657;28;20483;-74
2022/12/14 07:10:49;;;;;;;31.45;15.85;;;;;;;;;;5051227;28;20029;-72
2022/12/14 07:13:15;;;;;;;31.35;14.38;;;;;;;;;;5050906;28;20036;-73
2022/12/14 07:15:41;;;;;;;28.38;15.32;;;;;;;;;;5050734;28;20025;-72
2022/12/14 07:18:07;;;;;;;29.45;14.57;;;;;;;;;;5050490;28;20467;-73
2022/12/14 07:20:33;;;;;;;24.70;14.13;;;;;;;;;;5051097;28;20040;-70
2022/12/14 07:22:59;;;;;;;28.38;14.45;;;;;;;;;;5051513;28;20035;-72
2022/12/14 07:25:25;;;;;;;28.58;15.00;;;;;;;;;;5052499;28;20112;-72
2022/12/14 07:27:51;;;;;;;25.90;14.32;;;;;;;;;;5050030;28;20032;-73
2022/12/14 07:30:17;;;;;;;29.30;14.13;;;;;;;;;;5051176;28;20037;-73
2022/12/14 07:32:43;;;;;;;25.30;13.45;;;;;;;;;;5050663;28;20114;-73
2022/12/14 07:35:09;;;;;;;26.05;13.50;;;;;;;;;;5050508;28;20052;-74
2022/12/14 07:37:35;;;;;;;27.70;14.73;;;;;;;;;;5050251;28;20475;-74
2022/12/14 07:40:02;;;;;;;26.80;14.10;;;;;;;;;;5048492;28;20036;-74
2022/12/14 07:42:28;;;;;;;29.02;15.13;;;;;;;;;;5051233;28;20079;-73
2022/12/14 07:44:54;;;;;;;27.73;13.90;;;;;;;;;;5050879;28;20025;-72
2022/12/14 07:47:20;;;;;;;31.13;17.02;;;;;;;;;;5049771;28;20025;-73
2022/12/14 07:49:46;;;;;;;27.30;14.68;;;;;;;;;;5051182;28;20571;-78
2022/12/14 07:52:12;;;;;;;26.25;14.02;;;;;;;;;;5049008;28;20056;-73
2022/12/14 07:54:38;;;;;;;29.15;14.93;;;;;;;;;;5030997;28;20511;-72
2022/12/14 07:57:04;;;;;;;28.55;14.05;;;;;;;;;;5052522;28;20021;-71
2022/12/14 07:59:30;;;;;;;30.67;14.68;;;;;;;;;;5058503;28;20025;-72
2022/12/14 08:01:56;;;;;;;25.13;14.43;;;;;;;;;;5050015;28;20108;-71
2022/12/14 08:04:22;;;;;;;31.70;15.13;;;;;;;;;;5050638;28;20609;-71
2022/12/14 08:06:48;;;;;;;26.08;14.40;;;;;;;;;;5049920;28;20059;-72
2022/12/14 08:09:15;;;;;;;26.38;14.57;;;;;;;;;;5055024;28;20025;-73
2022/12/14 08:11:41;;;;;;;27.55;14.00;;;;;;;;;;5052264;28;20025;-72
2022/12/14 08:14:10;;;;;;;23.83;13.40;;;;;;;;;;5052461;28;20025;-72
2022/12/14 08:16:36;;;;;;;24.77;13.98;;;;;;;;;;5034122;28;20025;-72
2022/12/14 08:19:02;;;;;;;27.52;14.63;;;;;;;;;;5053121;28;20043;-73
2022/12/14 08:21:29;;;;;;;25.17;13.38;;;;;;;;;;5053490;28;20027;-73
2022/12/14 08:23:56;;;;;;;24.33;14.13;;;;;;;;;;5053810;28;20467;-73
2022/12/14 08:26:22;;;;;;;27.75;15.00;;;;;;;;;;5054297;28;20024;-72
2022/12/14 08:28:48;;;;;;;26.17;14.10;;;;;;;;;;5053487;28;20430;-73
2022/12/14 08:31:16;;;;;;;25.00;14.10;;;;;;;;;;5053739;28;20506;-74
2022/12/14 08:33:42;;;;;;;28.05;13.75;;;;;;;;;;5061631;28;20029;-72
2022/12/14 08:36:12;;;;;;;21.58;13.90;;;;;;;;;;5054445;28;20610;-75
2022/12/14 08:38:39;;;;;;;28.05;13.10;;;;;;;;;;5036003;28;20187;-76
2022/12/14 08:41:06;;;;;;;25.77;12.90;;;;;;;;;;5053202;28;20506;-73
2022/12/14 08:43:33;;;;;;;28.98;14.40;;;;;;;;;;5051221;28;20033;-75
2022/12/14 08:45:59;;;;;;;31.73;14.80;;;;;;;;;;5063227;28;20029;-72
2022/12/14 08:48:25;;;;;;;24.70;13.95;;;;;;;;;;5056967;28;20029;-70
2022/12/14 08:50:51;;;;;;;26.17;15.10;;;;;;;;;;5055690;28;20444;-70
2022/12/14 08:53:17;;;;;;;26.13;13.80;;;;;;;;;;5039759;28;20408;-73
2022/12/14 08:55:44;;;;;;;23.00;13.75;;;;;;;;;;5056103;28;20036;-75
2022/12/14 08:58:12;;;;;;;24.90;14.20;;;;;;;;;;5057130;28;20029;-82
2022/12/14 09:00:38;;;;;;;24.95;14.23;;;;;;;;;;5060120;28;20025;-78
2022/12/14 09:03:05;;;;;;;23.95;14.07;;;;;;;;;;5058531;28;20161;-79
2022/12/14 09:05:31;;;;;;;26.35;13.57;;;;;;;;;;5056131;28;20052;-81
2022/12/14 09:07:57;;;;;;;24.75;14.35;;;;;;;;;;5053715;28;20025;-77
2022/12/14 09:10:23;;;;;;;23.20;13.02;;;;;;;;;;5054515;28;20032;-76
2022/12/14 09:12:50;;;;;;;25.70;15.23;;;;;;;;;;5058640;28;20100;-76
2022/12/14 09:15:19;;;;;;;26.50;15.07;;;;;;;;;;5058529;28;20032;-76
2022/12/14 09:17:45;;;;;;;25.48;15.52;;;;;;;;;;5053019;28;20112;-76
2022/12/14 09:20:12;;;;;;;27.40;14.77;;;;;;;;;;5054066;28;20029;-76
2022/12/14 09:22:39;;;;;;;26.50;15.50;;;;;;;;;;5068544;28;20040;-80
2022/12/14 09:25:08;;;;;;;27.63;13.93;;;;;;;;;;5059671;28;20043;-78
2022/12/14 09:27:34;;;;;;;25.80;14.48;;;;;;;;;;5076389;28;20021;-78
2022/12/14 09:30:00;;;;;;;26.50;14.30;;;;;;;;;;5061505;28;20368;-74
2022/12/14 09:32:31;;;;;;;24.60;14.27;;;;;;;;;;5053510;28;20040;-76
2022/12/14 09:34:58;;;;;;;30.80;15.63;;;;;;;;;;5055575;28;20085;-76
2022/12/14 09:37:24;;;;;;;27.05;14.40;;;;;;;;;;5039623;28;20025;-77
2022/12/14 09:39:50;;;;;;;28.48;15.63;;;;;;;;;;5037490;28;20434;-77
2022/12/14 09:42:39;;;;;;;29.17;16.10;;;;;;;;;;5052911;28;20569;-77
2022/12/14 09:45:24;;;;;;;25.67;14.50;;;;;;;;;;5057216;28;20532;-75
2022/12/14 09:48:09;;;;;;;28.90;16.38;;;;;;;;;;5052403;28;20104;-76
2022/12/14 09:50:35;;;;;;;23.17;14.57;;;;;;;;;;5052951;28;20429;-73
2022/12/14 09:53:05;;;;;;;27.52;15.73;;;;;;;;;;5052830;28;20525;-78
2022/12/14 09:55:30;;;;;;;26.88;15.48;;;;;;;;;;5034879;28;20501;-78
2022/12/14 09:58:05;;;;;;;26.80;15.43;;;;;;;;;;5052106;28;20036;-75
2022/12/14 10:00:34;;;;;;;26.38;14.82;;;;;;;;;;5054206;28;20536;-75
2022/12/14 10:03:18;;;;;;;32.88;16.30;;;;;;;;;;5054937;28;20029;-76
2022/12/14 10:06:01;;;;;;;29.05;16.40;;;;;;;;;;5054292;28;20037;-75
2022/12/14 10:08:30;;;;;;;27.27;15.90;;;;;;;;;;5052982;28;20055;-74
2022/12/14 10:10:59;;;;;;;28.50;15.85;;;;;;;;;;5052393;28;20115;-73
2022/12/14 10:13:55;;;;;;;23.45;14.85;;;;;;;;;;5051911;28;20017;-74
2022/12/14 10:16:34;;;;;;;27.38;15.05;;;;;;;;;;5038978;28;20037;-72
2022/12/14 10:19:06;;;;;;;28.02;15.57;;;;;;;;;;5051581;28;20031;-78
2022/12/14 10:21:39;;;;;;;28.13;15.77;;;;;;;;;;5058522;28;20036;-79
2022/12/14 10:24:07;;;;;;;26.50;15.05;;;;;;;;;;5050969;28;20398;-76
2022/12/14 10:26:39;;;;;;;28.58;16.00;;;;;;;;;;5034818;28;20025;-76
2022/12/14 10:29:18;;;;;;;27.75;15.85;;;;;;;;;;5051485;28;20564;-76
2022/12/14 10:31:54;;;;;;;29.70;16.05;;;;;;;;;;5033576;28;20045;-75
2022/12/14 10:34:23;;;;;;;27.00;14.43;;;;;;;;;;5052011;28;20493;-73
2022/12/14 10:37:01;;;;;;;23.90;14.40;;;;;;;;;;5052221;28;20033;-71
2022/12/14 10:39:35;;;;;;;26.00;15.18;;;;;;;;;;5051188;28;20123;-77
2022/12/14 10:42:13;;;;;;;23.55;13.95;;;;;;;;;;5051746;28;20105;-77
2022/12/14 10:44:48;;;;;;;27.08;14.23;;;;;;;;;;5050134;28;20040;-76
2022/12/14 10:47:19;;;;;;;23.58;14.05;;;;;;;;;;5049164;28;20533;-77
2022/12/14 10:49:55;;;;;;;26.70;15.27;;;;;;;;;;5034130;28;20032;-76
2022/12/14 10:52:26;;;;;;;25.63;14.18;;;;;;;;;;5051980;28;20078;-76
2022/12/14 10:54:57;;;;;;;24.27;14.93;;;;;;;;;;5051819;28;20021;-77
2022/12/14 10:57:27;;;;;;;26.30;14.85;;;;;;;;;;5051202;28;20098;-75
2022/12/14 10:59:54;;;;;;;19.40;11.93;;;;;;;;;;5017893;28;20021;-77
2022/12/14 11:02:27;;;;;;;27.13;15.05;;;;;;;;;;5051219;28;20132;-75
2022/12/14 11:04:53;;;;;;;25.17;15.13;;;;;;;;;;5017042;28;20517;-75
2022/12/14 11:07:21;;;;;;;24.17;14.98;;;;;;;;;;5051323;28;20053;-73
2022/12/14 11:09:48;;;;;;;25.23;14.85;;;;;;;;;;5051619;28;20021;-75
2022/12/14 11:12:14;;;;;;;25.08;15.40;;;;;;;;;;5050598;28;20028;-77
2022/12/14 11:14:51;;;;;;;28.45;16.77;;;;;;;;;;5051647;28;20025;-74
2022/12/14 11:17:36;;;;;;;28.20;15.23;;;;;;;;;;5047642;28;20599;-72
2022/12/14 11:20:08;;;;;;;27.30;15.65;;;;;;;;;;5050921;28;20429;-74
2022/12/14 11:22:54;;;;;;;26.58;15.80;;;;;;;;;;5051153;28;20035;-73
2022/12/14 11:25:37;;;;;;;24.60;14.00;;;;;;;;;;5032811;28;20107;-74
2022/12/14 11:28:23;;;;;;;25.67;15.10;;;;;;;;;;5035986;28;20021;-74
2022/12/14 11:31:10;;;;;;;25.70;14.75;;;;;;;;;;5050550;28;20029;-74
2022/12/14 11:33:40;;;;;;;27.27;15.40;;;;;;;;;;5049972;28;20028;-68
2022/12/14 11:36:07;;;;;;;25.85;15.30;;;;;;;;;;5052192;28;20491;-68
2022/12/14 11:38:34;;;;;;;26.75;15.18;;;;;;;;;;5049775;28;20025;-68
2022/12/14 11:41:01;;;;;;;27.55;16.10;;;;;;;;;;5051076;28;20033;-74
2022/12/14 11:43:29;;;;;;;28.05;15.15;;;;;;;;;;5053585;28;20437;-76
2022/12/14 11:45:56;;;;;;;26.30;16.13;;;;;;;;;;5055646;28;20025;-73
2022/12/14 11:48:27;;;;;;;26.30;15.05;;;;;;;;;;5054597;28;20017;-74
2022/12/14 11:50:54;;;;;;;22.15;12.77;;;;;;;;;;5054938;28;20048;-72
2022/12/14 11:53:21;;;;;;;29.83;15.57;;;;;;;;;;5054993;28;20121;-72
2022/12/14 11:55:50;;;;;;;26.25;15.23;;;;;;;;;;5055399;28;20032;-74
2022/12/14 11:58:24;;;;;;;27.95;16.38;;;;;;;;;;5054624;28;20424;-74
2022/12/14 12:01:02;;;;;;;25.00;14.10;;;;;;;;;;5055378;28;20407;-74
2022/12/14 12:03:35;;;;;;;27.90;14.95;;;;;;;;;;5055071;28;20033;-77
2022/12/14 12:06:04;;;;;;;27.58;15.93;;;;;;;;;;5056495;28;20379;-73
2022/12/14 12:08:31;;;;;;;32.85;17.65;;;;;;;;;;5058302;28;20031;-77
2022/12/14 12:10:58;;;;;;;28.20;16.25;;;;;;;;;;5034423;28;20060;-73
2022/12/14 12:13:38;;;;;;;27.73;14.93;;;;;;;;;;5057048;28;20021;-76
2022/12/14 12:16:07;;;;;;;30.05;16.85;;;;;;;;;;5054051;28;20441;-77
2022/12/14 12:18:40;;;;;;;27.23;15.85;;;;;;;;;;5054178;28;20036;-74
2022/12/14 12:21:09;;;;;;;33.65;16.58;;;;;;;;;;5052048;28;20036;-74
2022/12/14 12:23:47;;;;;;;29.05;16.80;;;;;;;;;;5054344;28;20028;-76
2022/12/14 12:26:19;;;;;;;31.17;16.42;;;;;;;;;;5054443;28;20029;-76
2022/12/14 12:28:48;;;;;;;26.65;15.82;;;;;;;;;;5054076;28;20056;-74
2022/12/14 12:31:18;;;;;;;29.95;16.65;;;;;;;;;;5054070;28;20479;-75
2022/12/14 12:33:54;;;;;;;33.03;17.52;;;;;;;;;;5054381;28;20029;-73
2022/12/14 12:36:20;;;;;;;32.45;17.02;;;;;;;;;;5054875;28;20508;-73
2022/12/14 12:39:02;;;;;;;30.15;16.30;;;;;;;;;;5054103;28;20144;-73
2022/12/14 12:41:34;;;;;;;28.92;16.50;;;;;;;;;;5054828;28;20487;-73
2022/12/14 12:44:06;;;;;;;29.05;16.67;;;;;;;;;;5054638;28;20475;-73
2022/12/14 12:46:44;;;;;;;29.83;17.58;;;;;;;;;;5054483;28;20044;-71
2022/12/14 12:49:16;;;;;;;30.27;16.65;;;;;;;;;;5053606;28;20104;-74
2022/12/14 12:51:42;;;;;;;31.08;18.42;;;;;;;;;;5054225;28;20108;-74
2022/12/14 12:54:11;;;;;;;28.33;15.98;;;;;;;;;;5054082;28;20053;-73
2022/12/14 12:56:48;;;;;;;32.67;18.02;;;;;;;;;;5054201;28;20060;-74
2022/12/14 12:59:19;;;;;;;34.85;18.52;;;;;;;;;;5053827;28;20025;-73
2022/12/14 13:01:47;;;;;;;30.23;17.40;;;;;;;;;;5054741;28;20503;-73
2022/12/14 13:04:24;;;;;;;26.95;16.73;;;;;;;;;;5053743;28;20116;-76
2022/12/14 13:06:52;;;;;;;31.98;17.25;;;;;;;;;;5054183;28;20029;-73
2022/12/14 13:09:32;;;;;;;37.30;19.25;;;;;;;;;;5053728;28;20036;-74
2022/12/14 13:11:59;;;;;;;32.38;17.75;;;;;;;;;;5054186;28;20487;-73
2022/12/14 13:14:29;;;;;;;29.75;16.13;;;;;;;;;;5053845;28;20481;-74
2022/12/14 13:16:56;;;;;;;33.88;18.25;;;;;;;;;;5053997;28;20444;-71
2022/12/14 13:19:25;;;;;;;30.25;17.40;;;;;;;;;;5053206;28;20033;-76
2022/12/14 13:21:51;;;;;;;33.72;18.10;;;;;;;;;;5053700;28;20476;-74
2022/12/14 13:24:19;;;;;;;35.15;20.17;;;;;;;;;;5053531;28;20032;-74
2022/12/14 13:26:46;;;;;;;34.08;19.00;;;;;;;;;;5053650;28;20025;-74
2022/12/14 13:29:21;;;;;;;35.40;18.23;;;;;;;;;;5052878;28;20518;-73
2022/12/14 13:31:59;;;;;;;30.80;16.85;;;;;;;;;;5053887;28;20061;-73
2022/12/14 13:34:42;;;;;;;31.05;18.42;;;;;;;;;;5053580;28;20056;-72
2022/12/14 13:37:17;;;;;;;31.70;17.80;;;;;;;;;;5053260;28;20047;-72
2022/12/14 13:40:02;;;;;;;35.10;18.95;;;;;;;;;;5053503;28;20159;-74
2022/12/14 13:42:41;;;;;;;33.10;18.15;;;;;;;;;;5053547;28;20048;-76
2022/12/14 13:45:16;;;;;;;37.60;18.50;;;;;;;;;;5053778;28;20395;-75
2022/12/14 13:47:48;;;;;;;37.40;18.52;;;;;;;;;;5053070;28;20017;-77
2022/12/14 13:50:30;;;;;;;38.17;19.90;;;;;;;;;;5052443;28;20375;-73
2022/12/14 13:52:59;;;;;;;35.47;20.02;;;;;;;;;;5040793;28;20032;-73
2022/12/14 13:55:31;;;;;;;38.03;19.73;;;;;;;;;;5051216;28;20016;-72
2022/12/14 13:58:12;;;;;;;38.30;19.70;;;;;;;;;;5032207;28;20035;-74
2022/12/14 14:00:45;;;;;;;39.75;19.15;;;;;;;;;;5050879;28;20442;-73
2022/12/14 14:03:30;;;;;;;35.88;19.00;;;;;;;;;;5032636;28;20463;-73
2022/12/14 14:05:59;;;;;;;39.70;21.48;;;;;;;;;;5050206;28;20128;-73
2022/12/14 14:08:28;;;;;;;39.17;20.25;;;;;;;;;;5050170;28;20410;-73
2022/12/14 14:10:54;;;;;;;42.88;20.55;;;;;;;;;;5051928;28;20398;-71
2022/12/14 14:13:26;;;;;;;35.40;20.40;;;;;;;;;;5052751;28;20121;-71
2022/12/14 14:15:54;;;;;;;40.72;21.15;;;;;;;;;;5052519;28;20032;-75
2022/12/14 14:18:22;;;;;;;40.20;21.35;;;;;;;;;;5051275;28;20032;-73
2022/12/14 14:20:52;;;;;;;36.88;19.75;;;;;;;;;;5052544;28;20096;-73
2022/12/14 14:23:20;;;;;;;32.17;16.17;;;;;;;;;;5052590;28;20144;-71
2022/12/14 14:25:50;;;;;;;41.03;22.02;;;;;;;;;;5038689;28;20033;-76
2022/12/14 14:28:17;;;;;;;41.83;21.45;;;;;;;;;;5071517;28;20056;-79
2022/12/14 14:30:49;;;;;;;39.75;21.65;;;;;;;;;;5074205;28;20045;-76
2022/12/14 14:33:33;;;;;;;44.20;23.45;;;;;;;;;;5070805;28;20394;-73
2022/12/14 14:36:11;;;;;;;39.90;20.92;;;;;;;;;;5050456;28;20040;-75
2022/12/14 14:38:37;;;;;;;42.00;22.23;;;;;;;;;;5050901;28;20110;-73
2022/12/14 14:41:11;;;;;;;40.40;21.00;;;;;;;;;;5050688;28;20119;-73
2022/12/14 14:43:38;;;;;;;45.22;23.33;;;;;;;;;;5051908;28;20029;-74
2022/12/14 14:46:06;;;;;;;42.05;22.35;;;;;;;;;;5051507;28;20100;-74
2022/12/14 14:48:37;;;;;;;45.65;23.50;;;;;;;;;;5051071;28;20044;-73